Time;durP1;ratioP1;P1;durP2;ratioP2;P2;SDS_P1;SDS_P2;PMS_P1;PMS_P2;Temp;Humidity;BMP_temperature;BMP_pressure;BME280_temperature;BME280_humidity;BME280_pressure;Samples;Min_cycle;Max_cycle;Signal;HPM_P1;HPM_P2
2021/12/27 00:01:41;;;;;;;;;;;-1.60;99.60;;;;;;5030482;28;19936;-73
2021/12/27 00:04:07;;;;;;;;;;;-1.60;99.90;;;;;;5029491;28;19960;-73
2021/12/27 00:06:33;;;;;;;;;;;-1.50;99.90;;;;;;5030382;28;19996;-73
2021/12/27 00:08:58;;;;;;;;;;;-1.50;99.90;;;;;;5030185;28;19913;-73
2021/12/27 00:11:24;;;;;;;;;;;-1.50;99.90;;;;;;5030305;28;19912;-73
2021/12/27 00:13:49;;;;;;;;;;;-1.50;99.90;;;;;;5030223;28;19982;-73
2021/12/27 00:16:14;;;;;;;;;;;-1.40;99.90;;;;;;5030227;28;19916;-73
2021/12/27 00:18:40;;;;;;;;;;;-1.50;99.80;;;;;;5030225;28;19909;-73
2021/12/27 00:21:05;;;;;;;;;;;-1.50;99.80;;;;;;5030165;28;19987;-73
2021/12/27 00:23:31;;;;;;;;;;;-1.40;99.90;;;;;;5029857;28;20369;-73
2021/12/27 00:25:57;;;;;;;;;;;-1.40;99.90;;;;;;5030211;28;19959;-73
2021/12/27 00:28:22;;;;;;;;;;;-1.40;99.90;;;;;;5030185;28;19905;-73
2021/12/27 00:30:48;;;;;;;;;;;-1.50;99.90;;;;;;5030128;28;19956;-73
2021/12/27 00:33:13;;;;;;;;;;;-1.40;99.90;;;;;;5030083;28;19916;-73
2021/12/27 00:35:40;;;;;;;;;;;-1.30;99.90;;;;;;5030112;28;20646;-73
2021/12/27 00:38:06;;;;;;;;;;;-1.30;99.90;;;;;;5029996;28;19928;-73
2021/12/27 00:40:31;;;;;;;;;;;-1.30;99.90;;;;;;5030342;28;20393;-73
2021/12/27 00:42:56;;;;;;;;;;;-1.30;99.90;;;;;;5029444;28;19905;-73
2021/12/27 00:45:22;;;;;;;;;;;-1.30;99.90;;;;;;5030056;28;19916;-73
2021/12/27 00:47:48;;;;;;;;;;;-1.30;99.90;;;;;;5030112;28;19905;-73
2021/12/27 00:50:13;;;;;;;;;;;-1.20;99.90;;;;;;5029804;28;20361;-73
2021/12/27 00:52:39;;;;;;;;;;;-1.20;99.90;;;;;;5029911;28;19916;-73
2021/12/27 00:55:08;;;;;;;;;;;-1.20;99.90;;;;;;5029880;28;19908;-73
2021/12/27 00:57:34;;;;;;;;;;;-1.20;99.90;;;;;;5029504;28;19912;-73
2021/12/27 00:59:59;;;;;;;;;;;-1.20;99.90;;;;;;5029752;28;19909;-73
2021/12/27 01:02:25;;;;;;;;;;;-1.20;99.90;;;;;;5029821;28;20026;-73
2021/12/27 01:04:50;;;;;;;;;;;-1.10;99.90;;;;;;5029775;28;20011;-74
2021/12/27 01:07:16;;;;;;;;;;;-1.10;99.90;;;;;;5029656;28;19905;-73
2021/12/27 01:10:03;;;;;;;;;;;-1.10;99.90;;;;;;5029795;28;20329;-73
2021/12/27 01:17:46;;;;;;;;;;;-1.10;99.90;;;;;;5033566;28;20063;-73
2021/12/27 01:20:14;;;;;;;;;;;-1.10;99.90;;;;;;5032896;28;19916;-73
2021/12/27 01:22:40;;;;;;;;;;;-1.10;99.90;;;;;;5032753;28;20067;-73
2021/12/27 01:25:06;;;;;;;;;;;-1.20;99.90;;;;;;5033105;28;20530;-73
2021/12/27 01:27:32;;;;;;;;;;;-1.20;99.90;;;;;;5033165;28;20357;-74
2021/12/27 01:29:57;;;;;;;;;;;-1.10;99.90;;;;;;5033043;28;19920;-74
2021/12/27 01:32:25;;;;;;;;;;;-1.10;99.90;;;;;;5032880;28;19905;-74
2021/12/27 01:34:51;;;;;;;;;;;-1.10;99.90;;;;;;5032734;28;19909;-74
2021/12/27 01:37:18;;;;;;;;;;;-1.20;99.90;;;;;;5033033;28;19996;-73
2021/12/27 01:39:44;;;;;;;;;;;-1.30;99.90;;;;;;5032972;28;19905;-74
2021/12/27 01:42:10;;;;;;;;;;;-1.40;99.90;;;;;;5032544;28;19912;-73
2021/12/27 01:44:35;;;;;;;;;;;-1.50;99.90;;;;;;5032882;28;20945;-73
2021/12/27 01:47:01;;;;;;;;;;;-1.50;99.90;;;;;;5033001;28;20357;-73
2021/12/27 01:49:26;;;;;;;;;;;-1.60;99.90;;;;;;5032893;28;19909;-73
2021/12/27 01:51:51;;;;;;;;;;;-1.50;99.90;;;;;;5032755;28;19963;-73
2021/12/27 01:54:17;;;;;;;;;;;-1.60;99.90;;;;;;5032603;28;19905;-73
2021/12/27 01:56:42;;;;;;;;;;;-1.60;99.90;;;;;;5032734;28;19905;-73
2021/12/27 01:59:08;;;;;;;;;;;-1.70;99.90;;;;;;5032447;28;20371;-73
2021/12/27 02:01:33;;;;;;;;;;;-1.70;99.90;;;;;;5032659;28;20353;-73
2021/12/27 02:03:58;;;;;;;;;;;-1.70;99.90;;;;;;5032363;28;20339;-74
2021/12/27 02:06:27;;;;;;;;;;;-1.70;99.90;;;;;;5032268;28;20270;-73
2021/12/27 02:08:53;;;;;;;;;;;-1.70;99.90;;;;;;5031037;28;20278;-74
2021/12/27 02:11:19;;;;;;;;;;;-1.70;99.90;;;;;;5032243;28;19916;-74
2021/12/27 02:13:46;;;;;;;;;;;-1.70;99.90;;;;;;5032233;28;20419;-74
2021/12/27 02:16:13;;;;;;;;;;;-1.60;99.90;;;;;;5032332;28;19955;-73
2021/12/27 02:18:40;;;;;;;;;;;-1.60;99.90;;;;;;5032215;28;20018;-73
2021/12/27 02:21:05;;;;;;;;;;;-1.50;99.90;;;;;;5031829;28;19968;-73
2021/12/27 02:23:32;;;;;;;;;;;-1.50;99.90;;;;;;5031872;28;19942;-73
2021/12/27 02:25:58;;;;;;;;;;;-1.40;99.90;;;;;;5031744;28;19952;-73
2021/12/27 02:28:23;;;;;;;;;;;-1.50;99.90;;;;;;5031481;28;20387;-73
2021/12/27 02:30:50;;;;;;;;;;;-1.50;99.90;;;;;;5032277;28;19909;-74
2021/12/27 02:33:16;;;;;;;;;;;-1.50;99.90;;;;;;5031777;28;19909;-73
2021/12/27 02:35:46;;;;;;;;;;;-1.40;99.90;;;;;;5031472;28;19962;-74
2021/12/27 02:38:14;;;;;;;;;;;-1.40;99.90;;;;;;5031446;28;19909;-74
2021/12/27 02:40:40;;;;;;;;;;;-1.40;99.90;;;;;;5031658;28;19933;-73
2021/12/27 02:43:16;;;;;;;;;;;-1.40;99.90;;;;;;5031056;28;19951;-74
2021/12/27 02:45:51;;;;;;;;;;;-1.30;99.90;;;;;;5031790;28;19905;-74
2021/12/27 02:48:18;;;;;;;;;;;-1.30;99.90;;;;;;5031561;28;20008;-73
2021/12/27 02:50:45;;;;;;;;;;;-1.30;99.90;;;;;;5031523;28;19916;-74
2021/12/27 02:53:11;;;;;;;;;;;-1.20;99.90;;;;;;5031201;28;19916;-74
2021/12/27 02:55:37;;;;;;;;;;;-1.20;99.90;;;;;;5031454;28;19909;-74
2021/12/27 02:58:03;;;;;;;;;;;-1.20;99.90;;;;;;5031559;28;19905;-74
2021/12/27 03:00:32;;;;;;;;;;;-1.20;99.90;;;;;;5031542;28;19912;-74
2021/12/27 03:02:58;;;;;;;;;;;-1.20;99.90;;;;;;5031180;28;19912;-73
2021/12/27 03:05:25;;;;;;;;;;;-1.10;99.90;;;;;;5046469;28;19905;-74
2021/12/27 03:07:51;;;;;;;;;;;-1.10;99.90;;;;;;5031044;28;19963;-74
2021/12/27 03:10:18;;;;;;;;;;;-1.20;99.90;;;;;;5030725;28;19916;-74
2021/12/27 03:12:45;;;;;;;;;;;-1.20;99.90;;;;;;5030850;28;19909;-73
2021/12/27 03:15:12;;;;;;;;;;;-1.20;99.90;;;;;;5030766;28;19920;-74
2021/12/27 03:17:37;;;;;;;;;;;-1.20;99.90;;;;;;5030639;28;19905;-74
2021/12/27 03:20:03;;;;;;;;;;;-1.20;99.90;;;;;;5030929;28;19912;-74
2021/12/27 03:22:29;;;;;;;;;;;-1.20;99.90;;;;;;5030340;28;19916;-74
2021/12/27 03:24:54;;;;;;;;;;;-1.20;99.90;;;;;;5030879;28;19905;-73
2021/12/27 03:27:20;;;;;;;;;;;-1.10;99.90;;;;;;5030964;28;20361;-74
2021/12/27 03:29:45;;;;;;;;;;;-1.00;99.90;;;;;;5030902;28;20276;-74
2021/12/27 03:32:11;;;;;;;;;;;-1.00;99.90;;;;;;5030703;28;20289;-73
2021/12/27 03:34:41;;;;;;;;;;;-1.00;99.90;;;;;;5030796;28;20358;-74
2021/12/27 03:37:08;;;;;;;;;;;-1.00;99.90;;;;;;5030822;28;19912;-74
2021/12/27 03:39:34;;;;;;;;;;;-1.00;99.90;;;;;;5030719;28;20361;-74
2021/12/27 03:41:59;;;;;;;;;;;-1.00;99.90;;;;;;5030486;28;19912;-74
2021/12/27 03:44:24;;;;;;;;;;;-1.10;99.90;;;;;;5030599;28;19909;-74
2021/12/27 03:46:50;;;;;;;;;;;-1.20;99.90;;;;;;5030973;28;19916;-74
2021/12/27 03:49:15;;;;;;;;;;;-1.20;99.90;;;;;;5030684;28;19919;-74
2021/12/27 03:51:43;;;;;;;;;;;-1.20;99.90;;;;;;5030100;28;20409;-74
2021/12/27 03:54:09;;;;;;;;;;;-1.10;99.90;;;;;;5030397;28;19937;-74
2021/12/27 03:56:34;;;;;;;;;;;-1.10;99.90;;;;;;5030513;28;20006;-73
2021/12/27 03:59:19;;;;;;;;;;;-1.00;99.90;;;;;;5030501;28;19913;-74
2021/12/27 04:01:45;;;;;;;;;;;-1.00;99.90;;;;;;5030530;28;19928;-74
2021/12/27 04:04:10;;;;;;;;;;;-1.00;99.90;;;;;;5030196;28;20383;-74
2021/12/27 04:06:36;;;;;;;;;;;-1.00;99.90;;;;;;5030520;28;19920;-74
2021/12/27 04:09:02;;;;;;;;;;;-1.00;99.90;;;;;;5030497;28;19919;-74
2021/12/27 04:11:28;;;;;;;;;;;-1.00;99.90;;;;;;5030288;28;19905;-74
2021/12/27 04:13:55;;;;;;;;;;;-0.90;99.90;;;;;;5045452;28;20250;-74
2021/12/27 04:16:21;;;;;;;;;;;-0.90;99.90;;;;;;5030245;28;19909;-74
2021/12/27 04:18:46;;;;;;;;;;;-0.90;99.90;;;;;;5030554;28;20235;-74
2021/12/27 04:21:12;;;;;;;;;;;-1.00;99.90;;;;;;5030122;28;19905;-74
2021/12/27 04:23:37;;;;;;;;;;;-1.00;99.90;;;;;;5029600;28;19913;-74
2021/12/27 04:26:03;;;;;;;;;;;-1.00;99.90;;;;;;5030383;28;19908;-74
2021/12/27 04:28:29;;;;;;;;;;;-1.00;99.90;;;;;;5029894;28;19905;-74
2021/12/27 04:30:54;;;;;;;;;;;-1.00;99.90;;;;;;5030138;28;19920;-74
2021/12/27 04:33:20;;;;;;;;;;;-1.00;99.90;;;;;;5029863;28;19909;-73
2021/12/27 04:35:45;;;;;;;;;;;-1.10;99.90;;;;;;5030179;28;19913;-74
2021/12/27 04:38:11;;;;;;;;;;;-1.10;99.90;;;;;;5030058;28;19951;-74
2021/12/27 04:40:38;;;;;;;;;;;-1.10;99.90;;;;;;5030102;28;20292;-74
2021/12/27 04:43:07;;;;;;;;;;;-1.10;99.90;;;;;;5029640;28;20380;-74
2021/12/27 04:45:32;;;;;;;;;;;-1.10;99.90;;;;;;5028732;28;20289;-74
2021/12/27 04:47:58;;;;;;;;;;;-1.10;99.90;;;;;;5029977;28;19915;-74
2021/12/27 04:50:23;;;;;;;;;;;-1.10;99.90;;;;;;5031523;28;19909;-73
2021/12/27 04:52:53;;;;;;;;;;;-1.10;99.90;;;;;;5033750;28;19908;-74
2021/12/27 04:55:19;;;;;;;;;;;-1.10;99.90;;;;;;5033669;28;19912;-74
2021/12/27 04:57:45;;;;;;;;;;;-1.10;99.90;;;;;;5033964;28;20031;-74
2021/12/27 05:00:10;;;;;;;;;;;-1.10;99.90;;;;;;5033608;28;20375;-74
2021/12/27 05:02:36;;;;;;;;;;;-1.10;99.90;;;;;;5033418;28;20048;-74
2021/12/27 05:05:02;;;;;;;;;;;-1.00;99.90;;;;;;5033495;28;20082;-74
2021/12/27 05:07:27;;;;;;;;;;;-1.00;99.90;;;;;;5033989;28;19905;-74
2021/12/27 05:09:53;;;;;;;;;;;-1.00;99.90;;;;;;5033384;28;19912;-73
2021/12/27 05:12:18;;;;;;;;;;;-1.00;99.90;;;;;;5033218;28;19912;-74
2021/12/27 05:14:43;;;;;;;;;;;-1.00;99.90;;;;;;5033547;28;20293;-74
2021/12/27 05:17:09;;;;;;;;;;;-1.00;99.90;;;;;;5033196;28;19912;-74
2021/12/27 05:19:34;;;;;;;;;;;-1.00;99.90;;;;;;5033362;28;19911;-74
2021/12/27 05:22:00;;;;;;;;;;;-1.00;99.90;;;;;;5033052;28;19909;-73
2021/12/27 05:24:27;;;;;;;;;;;-1.10;99.90;;;;;;5033159;28;20251;-73
2021/12/27 05:26:53;;;;;;;;;;;-1.00;99.90;;;;;;5032942;28;19937;-73
2021/12/27 05:29:18;;;;;;;;;;;-1.00;99.90;;;;;;5032999;28;19991;-74
2021/12/27 05:31:46;;;;;;;;;;;-1.10;99.90;;;;;;5032666;28;20282;-74
2021/12/27 05:34:14;;;;;;;;;;;-1.10;99.90;;;;;;5032546;28;19909;-74
2021/12/27 05:36:42;;;;;;;;;;;-1.10;99.90;;;;;;5031502;28;20293;-74
2021/12/27 05:39:08;;;;;;;;;;;-1.10;99.90;;;;;;5032737;28;19909;-73
2021/12/27 05:41:33;;;;;;;;;;;-1.10;99.90;;;;;;5032810;28;19909;-73
2021/12/27 05:43:59;;;;;;;;;;;-1.10;99.90;;;;;;5032684;28;20445;-74
2021/12/27 05:46:24;;;;;;;;;;;-1.10;99.90;;;;;;5032871;28;19913;-74
2021/12/27 05:48:50;;;;;;;;;;;-1.10;99.90;;;;;;5032736;28;19920;-74
2021/12/27 05:51:15;;;;;;;;;;;-1.10;99.90;;;;;;5032579;28;20413;-73
2021/12/27 05:53:40;;;;;;;;;;;-1.00;99.90;;;;;;5032551;28;19909;-73
2021/12/27 05:56:06;;;;;;;;;;;-1.00;99.90;;;;;;5032724;28;19910;-73
2021/12/27 05:58:31;;;;;;;;;;;-1.00;99.90;;;;;;5032584;28;19995;-74
2021/12/27 06:00:57;;;;;;;;;;;-1.00;99.90;;;;;;5031871;28;19905;-74
2021/12/27 06:03:22;;;;;;;;;;;-1.00;99.90;;;;;;5031651;28;19909;-74
2021/12/27 06:05:48;;;;;;;;;;;-1.00;99.90;;;;;;5032586;28;19905;-74
2021/12/27 06:08:13;;;;;;;;;;;-1.00;99.90;;;;;;5032335;28;20385;-74
2021/12/27 06:10:39;;;;;;;;;;;-1.00;99.90;;;;;;5032535;28;19919;-74
2021/12/27 06:13:04;;;;;;;;;;;-1.00;99.90;;;;;;5032093;28;20017;-74
2021/12/27 06:15:30;;;;;;;;;;;-1.00;99.90;;;;;;5032186;28;19916;-74
2021/12/27 06:17:55;;;;;;;;;;;-1.00;99.90;;;;;;5031808;28;19989;-74
2021/12/27 06:20:21;;;;;;;;;;;-1.00;99.90;;;;;;5032110;28;20357;-74
2021/12/27 06:22:51;;;;;;;;;;;-1.00;99.90;;;;;;5031979;28;19913;-74
2021/12/27 06:25:17;;;;;;;;;;;-1.00;99.90;;;;;;5031652;28;19916;-74
2021/12/27 06:27:42;;;;;;;;;;;-1.00;99.90;;;;;;5032122;28;19909;-74
2021/12/27 06:30:09;;;;;;;;;;;-0.90;99.90;;;;;;5031865;28;20354;-75
2021/12/27 06:32:35;;;;;;;;;;;-0.90;99.90;;;;;;5031870;28;19912;-75
2021/12/27 06:35:01;;;;;;;;;;;-0.90;99.90;;;;;;5031822;28;20369;-74
2021/12/27 06:37:26;;;;;;;;;;;-0.80;99.90;;;;;;5031487;28;19912;-74
2021/12/27 06:39:52;;;;;;;;;;;-0.80;99.90;;;;;;5031890;28;19905;-74
2021/12/27 06:42:17;;;;;;;;;;;-0.70;99.90;;;;;;5031352;28;19909;-74
2021/12/27 06:44:43;;;;;;;;;;;-0.70;99.90;;;;;;5031848;28;19916;-75
2021/12/27 06:47:08;;;;;;;;;;;-0.70;99.90;;;;;;5031662;28;19971;-75
2021/12/27 06:49:34;;;;;;;;;;;-0.70;99.90;;;;;;5031603;28;19913;-74
2021/12/27 06:51:59;;;;;;;;;;;-0.70;99.90;;;;;;5031509;28;19904;-75
2021/12/27 06:54:24;;;;;;;;;;;-0.70;99.90;;;;;;5031630;28;19905;-74
2021/12/27 06:56:50;;;;;;;;;;;-0.70;99.90;;;;;;5031660;28;20393;-74
2021/12/27 06:59:16;;;;;;;;;;;-0.70;99.90;;;;;;5031009;28;20226;-75
2021/12/27 07:01:41;;;;;;;;;;;-0.60;99.90;;;;;;5031022;28;19905;-74
2021/12/27 07:04:07;;;;;;;;;;;-0.60;99.90;;;;;;5030869;28;19969;-74
2021/12/27 07:06:32;;;;;;;;;;;-0.60;99.90;;;;;;5031540;28;19912;-74
2021/12/27 07:08:58;;;;;;;;;;;-0.60;99.90;;;;;;5031245;28;20003;-75
2021/12/27 07:11:23;;;;;;;;;;;-0.60;99.90;;;;;;5031189;28;20419;-74
2021/12/27 07:13:49;;;;;;;;;;;-0.60;99.90;;;;;;5030714;28;20280;-75
2021/12/27 07:16:14;;;;;;;;;;;-0.60;99.90;;;;;;5031058;28;19916;-74
2021/12/27 07:18:39;;;;;;;;;;;-0.70;99.90;;;;;;5029855;28;19958;-75
2021/12/27 07:21:05;;;;;;;;;;;-0.60;99.90;;;;;;5030931;28;20118;-74
2021/12/27 07:23:30;;;;;;;;;;;-0.60;99.90;;;;;;5041672;23;19964;-70
2021/12/27 07:25:56;;;;;;;;;;;-0.70;99.90;;;;;;5021369;28;19911;-70
2021/12/27 07:28:21;;;;;;;;;;;-0.70;99.90;;;;;;5021108;28;19909;-70
2021/12/27 07:30:47;;;;;;;;;;;-0.70;99.90;;;;;;5021621;28;20012;-69
2021/12/27 07:33:12;;;;;;;;;;;-0.70;99.90;;;;;;5020989;28;20262;-69
2021/12/27 07:35:38;;;;;;;;;;;-0.60;99.90;;;;;;5020974;28;19911;-69
2021/12/27 07:38:04;;;;;;;;;;;-0.60;99.90;;;;;;5021019;28;20374;-70
2021/12/27 07:40:29;;;;;;;;;;;-0.60;99.90;;;;;;5020925;28;20366;-70
2021/12/27 07:42:55;;;;;;;;;;;-0.70;99.90;;;;;;5020964;28;20345;-70
2021/12/27 07:45:20;;;;;;;;;;;-0.60;99.90;;;;;;5021087;28;20333;-69
2021/12/27 07:47:46;;;;;;;;;;;-0.60;99.90;;;;;;5021077;28;19917;-69
2021/12/27 07:50:11;;;;;;;;;;;-0.60;99.90;;;;;;5021001;28;19916;-70
2021/12/27 07:52:37;;;;;;;;;;;-0.60;99.90;;;;;;5020981;28;19909;-69
2021/12/27 07:55:03;;;;;;;;;;;-0.60;99.90;;;;;;5021129;28;19905;-69
2021/12/27 07:57:28;;;;;;;;;;;-0.60;99.90;;;;;;5021167;28;19931;-70
2021/12/27 07:59:54;;;;;;;;;;;-0.60;99.90;;;;;;5021121;28;19916;-70
2021/12/27 08:02:19;;;;;;;;;;;-0.60;99.90;;;;;;5021214;28;19913;-70
2021/12/27 08:04:45;;;;;;;;;;;-0.60;99.90;;;;;;5021159;28;19905;-69
2021/12/27 08:07:10;;;;;;;;;;;-0.50;99.90;;;;;;5021244;28;19974;-70
2021/12/27 08:09:36;;;;;;;;;;;-0.50;99.90;;;;;;5021070;28;20306;-70
2021/12/27 08:12:02;;;;;;;;;;;-0.50;99.90;;;;;;5021156;28;19906;-69
2021/12/27 08:14:27;;;;;;;;;;;-0.40;99.90;;;;;;5021267;28;19937;-70
2021/12/27 08:16:53;;;;;;;;;;;-0.40;99.90;;;;;;5021707;28;19905;-70
2021/12/27 08:19:18;;;;;;;;;;;-0.40;99.90;;;;;;5021593;28;20393;-70
2021/12/27 08:21:44;;;;;;;;;;;-0.40;99.90;;;;;;5020719;28;19912;-69
2021/12/27 08:24:09;;;;;;;;;;;-0.30;99.90;;;;;;5020489;28;20324;-69
2021/12/27 08:26:34;;;;;;;;;;;-0.40;99.90;;;;;;5023807;28;19913;-70
2021/12/27 08:29:01;;;;;;;;;;;-0.30;99.90;;;;;;5024421;28;19909;-70
2021/12/27 08:31:27;;;;;;;;;;;-0.30;99.90;;;;;;5024672;28;19913;-70
2021/12/27 08:33:52;;;;;;;;;;;-0.20;99.90;;;;;;5024345;28;19913;-70
2021/12/27 08:36:19;;;;;;;;;;;-0.20;99.90;;;;;;5024489;28;19910;-70
2021/12/27 08:38:46;;;;;;;;;;;-0.20;99.90;;;;;;5024351;28;19916;-70
2021/12/27 08:41:12;;;;;;;;;;;-0.10;99.90;;;;;;5024385;28;19996;-70
2021/12/27 08:43:37;;;;;;;;;;;-0.10;99.90;;;;;;5024332;28;20342;-70
2021/12/27 08:46:02;;;;;;;;;;;-0.10;99.90;;;;;;5024485;28;20009;-70
2021/12/27 08:48:28;;;;;;;;;;;0.00;99.90;;;;;;5039861;28;20340;-69
2021/12/27 08:50:53;;;;;;;;;;;0.00;99.90;;;;;;5024224;28;19921;-70
2021/12/27 08:53:19;;;;;;;;;;;0.00;99.90;;;;;;5024411;28;19909;-70
2021/12/27 08:55:44;;;;;;;;;;;0.00;99.90;;;;;;5024493;28;19905;-70
2021/12/27 08:58:10;;;;;;;;;;;0.00;99.90;;;;;;5024624;28;19992;-70
2021/12/27 09:00:35;;;;;;;;;;;0.10;99.90;;;;;;5024416;28;19913;-69
2021/12/27 09:03:01;;;;;;;;;;;0.10;99.90;;;;;;5024115;28;19906;-70
2021/12/27 09:05:26;;;;;;;;;;;0.10;99.90;;;;;;5024757;28;19916;-69
2021/12/27 09:07:52;;;;;;;;;;;0.20;99.90;;;;;;5024290;28;19928;-70
2021/12/27 09:10:17;;;;;;;;;;;0.20;99.90;;;;;;5024224;28;20008;-70
2021/12/27 09:12:44;;;;;;;;;;;0.20;99.90;;;;;;5024032;28;19913;-69
2021/12/27 09:15:10;;;;;;;;;;;0.30;99.90;;;;;;5024371;28;19909;-69
2021/12/27 09:17:35;;;;;;;;;;;0.30;99.90;;;;;;5024891;28;20003;-70
2021/12/27 09:20:02;;;;;;;;;;;0.30;99.90;;;;;;5023808;28;19905;-69
2021/12/27 09:22:28;;;;;;;;;;;0.30;99.90;;;;;;5022912;28;19909;-70
2021/12/27 09:24:53;;;;;;;;;;;0.30;99.90;;;;;;5023578;28;19913;-70
2021/12/27 09:27:19;;;;;;;;;;;0.40;99.90;;;;;;5023433;28;19959;-70
2021/12/27 09:29:45;;;;;;;;;;;0.40;99.90;;;;;;5023597;28;20320;-69
2021/12/27 09:32:11;;;;;;;;;;;0.40;99.90;;;;;;5023332;28;19909;-69
2021/12/27 09:34:37;;;;;;;;;;;0.50;99.90;;;;;;5023240;28;19912;-70
2021/12/27 09:37:02;;;;;;;;;;;0.50;99.90;;;;;;5023120;28;19905;-70
2021/12/27 09:39:28;;;;;;;;;;;0.50;99.90;;;;;;5038763;28;19916;-69
2021/12/27 09:41:53;;;;;;;;;;;0.50;99.90;;;;;;5023246;28;20408;-69
2021/12/27 09:44:19;;;;;;;;;;;0.50;99.90;;;;;;5023321;28;19963;-69
2021/12/27 09:46:44;;;;;;;;;;;0.60;99.90;;;;;;5023439;28;19927;-70
2021/12/27 09:49:11;;;;;;;;;;;0.60;99.90;;;;;;5023661;28;20324;-69
2021/12/27 09:51:37;;;;;;;;;;;0.70;99.90;;;;;;5023049;28;19909;-70
2021/12/27 09:54:03;;;;;;;;;;;0.70;99.90;;;;;;5023346;28;19911;-69
2021/12/27 09:56:28;;;;;;;;;;;0.80;99.90;;;;;;5023885;28;19908;-69
2021/12/27 09:58:54;;;;;;;;;;;0.80;99.90;;;;;;5023232;28;19944;-69
2021/12/27 10:01:20;;;;;;;;;;;0.80;99.90;;;;;;5023451;28;19913;-70
2021/12/27 10:03:56;;;;;;;;;;;0.80;99.90;;;;;;5023137;28;19905;-69
2021/12/27 10:06:22;;;;;;;;;;;0.90;99.90;;;;;;5024067;28;19905;-70
2021/12/27 10:08:50;;;;;;;;;;;0.90;99.90;;;;;;5023394;28;19980;-70
2021/12/27 10:11:17;;;;;;;;;;;0.90;99.90;;;;;;5023612;28;19912;-70
2021/12/27 10:13:56;;;;;;;;;;;1.00;99.90;;;;;;4950249;28;19928;-69
2021/12/27 10:16:55;;;;;;;;;;;1.00;99.90;;;;;;5006530;27;19929;-68
2021/12/27 10:20:28;;;;;;;21.98;12.40;;;1.00;99.90;;;;;;5074047;27;20358;-70
2021/12/27 10:22:55;;;;;;;20.60;12.50;;;1.10;99.90;;;;;;5086786;28;20024;-69
2021/12/27 10:25:27;;;;;;;24.85;13.20;;;1.10;99.90;;;;;;5060341;28;20052;-70
2021/12/27 10:27:55;;;;;;;25.08;13.27;;;1.10;99.90;;;;;;5086455;28;20024;-70
2021/12/27 10:30:32;;;;;;;25.10;13.43;;;1.10;99.90;;;;;;5086052;28;20384;-70
2021/12/27 10:33:16;;;;;;;21.38;14.25;;;1.10;99.90;;;;;;5075831;22;20028;-70
2021/12/27 10:35:49;;;;;;;23.77;14.73;;;1.10;99.90;;;;;;5035236;28;20057;-72
2021/12/27 10:38:24;;;;;;;23.85;13.52;;;1.20;99.90;;;;;;5037096;28;20025;-71
2021/12/27 10:41:03;;;;;;;22.23;13.45;;;1.20;99.90;;;;;;5036617;28;20021;-71
2021/12/27 10:43:45;;;;;;;19.15;12.38;;;1.30;99.90;;;;;;5036322;28;20131;-71
2021/12/27 10:46:13;;;;;;;23.33;13.27;;;1.30;99.90;;;;;;5036647;28;20034;-72
2021/12/27 10:48:41;;;;;;;21.33;13.18;;;1.30;99.90;;;;;;5036041;28;20060;-72
2021/12/27 10:51:08;;;;;;;21.63;13.05;;;1.30;99.90;;;;;;5035827;28;20505;-72
2021/12/27 10:53:49;;;;;;;20.70;14.38;;;1.40;99.90;;;;;;5035558;28;20041;-71
2021/12/27 10:56:17;;;;;;;20.80;13.25;;;1.40;99.90;;;;;;5036163;28;20027;-71
2021/12/27 10:58:47;;;;;;;20.23;13.27;;;1.40;99.90;;;;;;5035731;28;20037;-71
2021/12/27 11:01:17;;;;;;;24.75;13.23;;;1.40;99.90;;;;;;5035819;28;20105;-71
2021/12/27 11:03:44;;;;;;;23.48;14.00;;;1.40;99.90;;;;;;5035354;28;20014;-71
2021/12/27 11:06:12;;;;;;;22.48;12.38;;;1.40;99.90;;;;;;5035934;28;20032;-71
2021/12/27 11:08:41;;;;;;;19.70;13.23;;;1.50;99.90;;;;;;5034814;28;20362;-71
2021/12/27 11:11:07;;;;;;;23.15;13.18;;;1.50;99.90;;;;;;5035576;28;20500;-71
2021/12/27 11:13:33;;;;;;;25.35;14.52;;;1.50;99.90;;;;;;5035263;28;20033;-71
2021/12/27 11:15:59;;;;;;;24.23;13.77;;;1.60;99.90;;;;;;5035560;28;20524;-72
2021/12/27 11:18:25;;;;;;;19.92;12.73;;;1.60;99.90;;;;;;5036247;28;20029;-72
2021/12/27 11:20:53;;;;;;;;;;;1.60;99.90;;;;;;5036640;28;20025;-72
2021/12/27 11:23:21;;;;;;;27.02;13.35;;;1.60;99.90;;;;;;5035820;28;19909;-72
2021/12/27 11:25:47;;;;;;;23.92;13.27;;;1.60;99.90;;;;;;5035798;28;20478;-71
2021/12/27 11:28:34;;;;;;;23.88;12.57;;;1.60;99.90;;;;;;5035776;28;20033;-71
2021/12/27 11:31:08;;;;;;;23.95;14.23;;;1.70;99.90;;;;;;5026600;28;20463;-72
2021/12/27 11:33:56;;;;;;;21.30;12.75;;;1.70;99.90;;;;;;5021808;28;20544;-71
2021/12/27 11:36:23;;;;;;;25.63;15.45;;;1.70;99.90;;;;;;5021979;28;20104;-71
2021/12/27 11:38:49;;;;;;;18.77;10.93;;;1.70;99.90;;;;;;5021880;28;20018;-71
2021/12/27 11:41:24;;;;;;;22.85;13.98;;;1.70;99.90;;;;;;5022354;28;20555;-71
2021/12/27 11:43:55;;;;;;;22.08;14.95;;;1.80;99.90;;;;;;5021743;28;20152;-71
2021/12/27 11:46:27;;;;;;;24.85;13.45;;;1.80;99.90;;;;;;5021976;28;20108;-71
2021/12/27 11:48:55;;;;;;;21.75;13.25;;;1.90;99.90;;;;;;5021714;28;20064;-71
2021/12/27 11:51:36;;;;;;;20.58;12.57;;;1.80;99.90;;;;;;5021874;28;20060;-71
2021/12/27 11:54:04;;;;;;;23.80;14.05;;;1.90;99.90;;;;;;5021475;28;20078;-71
2021/12/27 11:56:38;;;;;;;22.02;13.02;;;1.90;99.90;;;;;;5021219;28;20397;-71
2021/12/27 11:59:22;;;;;;;20.55;12.40;;;2.00;99.90;;;;;;5021713;28;20021;-71
2021/12/27 12:01:49;;;;;;;22.70;13.85;;;2.00;99.90;;;;;;5021148;28;20025;-72
2021/12/27 12:04:41;;;;;;;25.50;13.57;;;2.00;99.90;;;;;;5021343;28;20034;-72
2021/12/27 12:07:08;;;;;;;38.88;19.45;;;2.00;99.90;;;;;;5020576;28;20494;-72
2021/12/27 12:09:47;;;;;;;27.20;16.83;;;2.10;99.90;;;;;;5020827;28;20041;-72
2021/12/27 12:12:14;;;;;;;33.58;18.17;;;2.10;99.90;;;;;;5021148;28;20104;-72
2021/12/27 12:14:41;;;;;;;34.58;16.83;;;2.10;99.90;;;;;;5020803;28;20402;-72
2021/12/27 12:17:11;;;;;;;29.90;16.23;;;2.10;99.90;;;;;;5022177;28;20394;-73
2021/12/27 12:19:44;;;;;;;20.90;13.75;;;2.10;99.90;;;;;;5021635;28;20120;-72
2021/12/27 12:22:38;;;;;;;21.30;13.32;;;2.20;99.90;;;;;;5021631;28;20029;-73
2021/12/27 12:25:06;;;;;;;22.20;13.40;;;2.30;99.90;;;;;;5021585;28;20375;-72
2021/12/27 12:27:32;;;;;;;23.50;13.85;;;2.30;99.90;;;;;;5021531;28;20028;-73
2021/12/27 12:29:57;;;;;;;26.55;14.23;;;2.30;99.90;;;;;;5021579;28;20037;-72
2021/12/27 12:32:23;;;;;;;24.60;14.90;;;2.30;99.90;;;;;;5021603;28;20367;-73
2021/12/27 12:34:48;;;;;;;28.52;14.70;;;2.40;99.90;;;;;;5021211;28;20037;-72
2021/12/27 12:37:16;;;;;;;25.42;14.40;;;2.50;99.90;;;;;;5021372;28;20049;-72
2021/12/27 12:39:49;;;;;;;22.17;13.73;;;2.40;99.90;;;;;;5020991;28;20037;-73
2021/12/27 12:42:16;;;;;;;24.33;13.70;;;2.40;99.90;;;;;;5020319;28;20018;-72
2021/12/27 12:44:53;;;;;;;24.20;14.85;;;2.40;99.90;;;;;;5020560;28;20014;-73
2021/12/27 12:47:25;;;;;;;22.55;14.05;;;2.40;99.90;;;;;;5020359;28;20149;-73
2021/12/27 12:49:51;;;;;;;22.38;13.60;;;2.40;99.90;;;;;;5020692;28;20053;-73
2021/12/27 12:52:17;;;;;;;24.17;14.25;;;2.50;99.90;;;;;;5020276;28;20107;-73
2021/12/27 12:54:44;;;;;;;26.05;16.63;;;2.50;99.90;;;;;;5020522;28;20026;-72
2021/12/27 12:57:20;;;;;;;24.55;13.70;;;2.50;99.90;;;;;;5002935;28;20588;-72
2021/12/27 12:59:52;;;;;;;23.65;13.18;;;2.50;99.90;;;;;;5020655;28;20025;-72
2021/12/27 13:02:19;;;;;;;22.48;13.23;;;2.50;99.90;;;;;;5020064;28;20394;-73
2021/12/27 13:04:55;;;;;;;23.05;15.98;;;2.50;99.90;;;;;;5019976;28;20021;-73
2021/12/27 13:07:45;;;;;;;26.90;15.77;;;2.50;99.90;;;;;;5019859;28;20108;-72
2021/12/27 13:10:31;;;;;;;24.42;13.18;;;2.50;99.90;;;;;;5020311;28;20033;-71
2021/12/27 13:13:01;;;;;;;21.65;13.50;;;2.50;99.90;;;;;;5019718;28;20026;-71
2021/12/27 13:15:33;;;;;;;24.85;13.82;;;2.50;99.90;;;;;;5020612;28;20398;-72
2021/12/27 13:18:06;;;;;;;24.73;14.65;;;2.50;99.90;;;;;;5020855;28;20470;-72
2021/12/27 13:20:34;;;;;;;19.85;13.35;;;2.50;99.90;;;;;;5020594;28;20025;-72
2021/12/27 13:23:00;;;;;;;21.80;14.32;;;2.50;99.90;;;;;;5020080;28;20017;-72
2021/12/27 13:25:39;;;;;;;;;;;2.50;99.90;;;;;;5020868;28;20355;-72
2021/12/27 13:28:20;;;;;;;26.42;14.15;;;2.50;99.90;;;;;;5020450;28;19912;-72
2021/12/27 13:30:53;;;;;;;24.67;13.98;;;2.60;99.90;;;;;;5019950;28;20018;-72
2021/12/27 13:33:23;;;;;;;23.45;14.50;;;2.60;99.90;;;;;;5020230;28;20094;-72
2021/12/27 13:35:50;;;;;;;22.58;13.45;;;2.60;99.90;;;;;;4953250;28;20035;-72
2021/12/27 13:38:16;;;;;;;21.83;13.98;;;2.60;99.90;;;;;;4996676;28;20014;-72
2021/12/27 13:40:47;;;;;;;22.05;13.88;;;2.60;99.90;;;;;;5019942;28;20462;-72
2021/12/27 13:43:13;;;;;;;19.48;11.73;;;2.70;99.90;;;;;;5019518;28;20037;-72
2021/12/27 13:45:44;;;;;;;32.92;17.70;;;2.70;99.90;;;;;;5001824;28;20029;-73
2021/12/27 13:48:10;;;;;;;20.33;13.30;;;2.70;99.90;;;;;;5020203;28;20033;-72
2021/12/27 13:50:37;;;;;;;24.45;15.82;;;2.80;99.90;;;;;;5019291;28;20025;-72
2021/12/27 13:53:14;;;;;;;22.95;12.45;;;2.80;99.90;;;;;;5019406;28;20029;-72
2021/12/27 13:55:40;;;;;;;20.63;14.38;;;2.80;99.90;;;;;;5019156;28;20029;-72
2021/12/27 13:58:14;;;;;;;21.27;13.93;;;2.80;99.90;;;;;;5019966;28;20509;-72
2021/12/27 14:00:39;;;;;;;23.60;13.88;;;2.80;99.90;;;;;;5019134;28;20028;-72